createdAt,value
2018-11-29T00:00:26.397Z,15.85
2018-11-29T00:02:54.678Z,16.90
2018-11-29T00:05:22.949Z,16.70
2018-11-29T00:07:51.209Z,16.35
2018-11-29T00:10:19.380Z,16.17
2018-11-29T00:12:47.576Z,15.43
2018-11-29T00:15:16.213Z,16.67
2018-11-29T00:17:44.445Z,16.12
2018-11-29T00:20:15.474Z,15.80
2018-11-29T00:22:44.476Z,16.73
2018-11-29T00:25:14.912Z,16.70
2018-11-29T00:27:43.274Z,16.67
2018-11-29T00:30:15.894Z,15.40
2018-11-29T00:32:44.213Z,17.65
2018-11-29T00:35:13.400Z,16.73
2018-11-29T00:37:41.807Z,16.97
2018-11-29T00:40:17.184Z,15.93
2018-11-29T00:42:45.386Z,16.40
2018-11-29T00:45:16.445Z,16.85
2018-11-29T00:47:45.250Z,19.50
2018-11-29T00:50:16.133Z,19.42
2018-11-29T00:52:46.025Z,17.30
2018-11-29T00:55:15.312Z,19.87
2018-11-29T00:57:43.551Z,17.52
2018-11-29T01:00:18.586Z,18.82
2018-11-29T01:02:46.806Z,18.75
2018-11-29T01:05:15.042Z,19.25
2018-11-29T01:07:43.257Z,17.92
2018-11-29T01:10:12.549Z,19.67
2018-11-29T01:12:40.938Z,19.30
2018-11-29T01:15:11.516Z,18.40
2018-11-29T01:17:39.728Z,20.65
2018-11-29T01:20:12.867Z,21.60
2018-11-29T01:22:41.063Z,19.37
2018-11-29T01:25:11.577Z,19.95
2018-11-29T01:27:39.875Z,20.08
2018-11-29T01:30:15.705Z,19.67
2018-11-29T01:32:43.926Z,18.42
2018-11-29T01:35:13.127Z,19.57
2018-11-29T01:37:42.073Z,19.87
2018-11-29T01:40:22.876Z,19.10
2018-11-29T01:42:53.051Z,22.07
2018-11-29T01:45:21.277Z,20.50
2018-11-29T01:47:49.485Z,20.85
2018-11-29T01:50:17.744Z,20.92
2018-11-29T01:52:45.957Z,21.62
2018-11-29T01:55:14.229Z,19.50
2018-11-29T01:57:42.439Z,20.72
2018-11-29T02:00:12.912Z,19.70
2018-11-29T02:02:41.113Z,21.23
2018-11-29T02:05:11.334Z,22.00
2018-11-29T02:07:39.510Z,21.52
2018-11-29T02:10:15.222Z,19.48
2018-11-29T02:12:43.385Z,21.95
2018-11-29T02:15:11.568Z,21.00
2018-11-29T02:17:39.816Z,21.60
2018-11-29T02:20:10.709Z,20.85
2018-11-29T02:22:38.921Z,21.48
2018-11-29T02:25:07.291Z,20.00
2018-11-29T02:27:35.795Z,21.48
2018-11-29T02:30:04.486Z,20.62
2018-11-29T02:32:32.665Z,21.70
2018-11-29T02:35:00.870Z,20.00
2018-11-29T02:37:29.089Z,21.70
2018-11-29T02:39:57.293Z,22.02
2018-11-29T02:42:25.495Z,23.12
2018-11-29T02:44:53.646Z,20.05
2018-11-29T02:47:21.893Z,20.48
2018-11-29T02:49:50.115Z,25.75
2018-11-29T02:52:18.349Z,21.65
2018-11-29T02:54:46.526Z,21.80
2018-11-29T02:57:14.681Z,23.32
2018-11-29T02:59:42.838Z,22.60
2018-11-29T03:02:11.038Z,24.20
2018-11-29T03:04:39.198Z,19.87
2018-11-29T03:07:07.442Z,22.55
2018-11-29T03:09:35.612Z,22.37
2018-11-29T03:12:03.820Z,21.50
2018-11-29T03:14:31.989Z,20.00
2018-11-29T03:17:00.181Z,22.55
2018-11-29T03:19:28.387Z,21.35
2018-11-29T03:21:56.523Z,22.75
2018-11-29T03:24:24.690Z,22.73
2018-11-29T03:26:52.853Z,21.25
2018-11-29T03:29:21.006Z,19.65
2018-11-29T03:31:49.184Z,21.87
2018-11-29T03:34:17.383Z,21.27
2018-11-29T03:36:45.508Z,20.35
2018-11-29T03:39:13.662Z,22.48
2018-11-29T03:41:41.809Z,21.55
2018-11-29T03:44:09.967Z,19.98
2018-11-29T03:46:38.093Z,21.25
2018-11-29T03:49:06.449Z,21.62
2018-11-29T03:51:34.595Z,21.23
2018-11-29T03:54:02.750Z,20.55
2018-11-29T03:56:30.928Z,19.55
2018-11-29T03:58:59.093Z,21.00
2018-11-29T04:01:27.265Z,21.00
2018-11-29T04:03:55.463Z,21.12
2018-11-29T04:06:23.733Z,21.95
2018-11-29T04:08:51.977Z,22.32
2018-11-29T04:11:20.144Z,19.50
2018-11-29T04:13:48.313Z,21.05
2018-11-29T04:16:16.937Z,20.30
2018-11-29T04:18:45.103Z,22.93
2018-11-29T04:21:13.321Z,20.45
2018-11-29T04:23:41.651Z,20.20
2018-11-29T04:26:09.891Z,20.55
2018-11-29T04:28:38.149Z,19.52
2018-11-29T04:31:06.333Z,19.07
2018-11-29T04:33:34.565Z,20.02
2018-11-29T04:36:02.822Z,20.43
2018-11-29T04:38:31.233Z,18.00
2018-11-29T04:40:59.479Z,19.40
2018-11-29T04:43:27.750Z,19.07
2018-11-29T04:46:07.396Z,20.68
2018-11-29T04:48:35.672Z,19.60
2018-11-29T04:51:03.871Z,19.57
2018-11-29T04:53:32.107Z,22.60
2018-11-29T04:56:00.301Z,20.92
2018-11-29T04:58:28.499Z,21.55
2018-11-29T05:00:56.766Z,22.10
2018-11-29T05:03:25.020Z,19.20
2018-11-29T05:05:53.222Z,22.27
2018-11-29T05:08:21.409Z,20.43
2018-11-29T05:10:49.577Z,19.77
2018-11-29T05:13:17.766Z,20.00
2018-11-29T05:15:45.928Z,21.20
2018-11-29T05:18:14.147Z,22.48
2018-11-29T05:20:42.377Z,21.02
2018-11-29T05:23:10.538Z,21.07
2018-11-29T05:25:38.719Z,20.88
2018-11-29T05:28:06.913Z,20.97
2018-11-29T05:30:35.143Z,18.87
2018-11-29T05:33:03.348Z,21.20
2018-11-29T05:35:31.820Z,21.48
2018-11-29T05:37:59.984Z,24.15
2018-11-29T05:40:28.153Z,21.15
2018-11-29T05:42:56.363Z,21.30
2018-11-29T05:45:24.585Z,20.17
2018-11-29T05:47:52.750Z,20.82
2018-11-29T05:50:20.982Z,21.12
2018-11-29T05:52:49.194Z,21.05
2018-11-29T05:55:17.558Z,24.00
2018-11-29T05:57:45.747Z,20.92
2018-11-29T06:00:14.475Z,21.12
2018-11-29T06:02:43.604Z,22.37
2018-11-29T06:05:13.221Z,22.95
2018-11-29T06:07:41.531Z,23.85
2018-11-29T06:10:09.753Z,25.30
2018-11-29T06:12:38.030Z,24.02
2018-11-29T06:15:07.756Z,25.15
2018-11-29T06:17:36.744Z,25.85
2018-11-29T06:20:06.260Z,23.52
2018-11-29T06:22:34.497Z,23.98
2018-11-29T06:25:02.727Z,22.17
2018-11-29T06:27:30.997Z,24.35
2018-11-29T06:29:59.170Z,24.05
2018-11-29T06:32:27.326Z,24.63
2018-11-29T06:34:55.497Z,23.25
2018-11-29T06:37:23.653Z,23.27
2018-11-29T06:39:51.884Z,24.23
2018-11-29T06:42:20.145Z,24.05
2018-11-29T06:44:48.308Z,23.67
2018-11-29T06:47:16.497Z,23.00
2018-11-29T06:49:44.689Z,24.43
2018-11-29T06:52:12.829Z,24.07
2018-11-29T06:54:41.135Z,24.45
2018-11-29T06:57:09.341Z,23.10
2018-11-29T06:59:37.544Z,24.12
2018-11-29T07:02:05.940Z,24.20
2018-11-29T07:04:34.220Z,22.00
2018-11-29T07:07:02.406Z,22.52
2018-11-29T07:09:30.592Z,22.42
2018-11-29T07:11:58.867Z,21.12
2018-11-29T07:14:27.057Z,21.77
2018-11-29T07:16:55.474Z,22.58
2018-11-29T07:19:24.076Z,20.20
2018-11-29T07:21:53.881Z,22.80
2018-11-29T07:24:23.005Z,21.33
2018-11-29T07:26:51.228Z,20.95
2018-11-29T07:29:19.450Z,21.40
2018-11-29T07:31:47.672Z,22.42
2018-11-29T07:34:15.809Z,22.02
2018-11-29T07:36:43.985Z,22.22
2018-11-29T07:39:12.177Z,20.20
2018-11-29T07:41:40.377Z,20.68
2018-11-29T07:44:10.142Z,21.62
2018-11-29T07:46:38.348Z,20.35
2018-11-29T07:49:06.506Z,21.70
2018-11-29T07:51:34.676Z,20.10
2018-11-29T07:54:02.949Z,19.45
2018-11-29T07:56:31.087Z,20.50
2018-11-29T07:58:59.270Z,20.00
2018-11-29T08:01:27.431Z,19.90
2018-11-29T08:03:55.634Z,19.45
2018-11-29T08:06:23.862Z,20.32
2018-11-29T08:08:52.054Z,19.95
2018-11-29T08:11:20.198Z,19.62
2018-11-29T08:13:48.357Z,19.30
2018-11-29T08:16:16.500Z,19.02
2018-11-29T08:18:44.669Z,19.75
2018-11-29T08:21:12.828Z,21.60
2018-11-29T08:23:40.993Z,19.62
2018-11-29T08:26:09.317Z,19.02
2018-11-29T08:28:37.474Z,21.15
2018-11-29T08:31:05.725Z,20.92
2018-11-29T08:33:33.972Z,21.40
2018-11-29T08:36:02.210Z,20.68
2018-11-29T08:38:30.404Z,20.10
2018-11-29T08:40:58.614Z,19.90
2018-11-29T08:43:26.941Z,20.10
2018-11-29T08:45:54.957Z,19.55
2018-11-29T08:48:23.114Z,20.20
2018-11-29T08:50:51.258Z,20.43
2018-11-29T08:53:19.441Z,19.77
2018-11-29T08:55:47.798Z,20.27
2018-11-29T08:58:16.094Z,18.10
2018-11-29T09:00:44.342Z,19.87
2018-11-29T09:03:12.590Z,19.23
2018-11-29T09:05:40.733Z,21.42
2018-11-29T09:08:08.918Z,19.85
2018-11-29T09:10:37.054Z,18.87
2018-11-29T09:13:05.323Z,17.70
2018-11-29T09:15:33.486Z,19.55
2018-11-29T09:18:01.629Z,19.55
2018-11-29T09:20:29.788Z,19.00
2018-11-29T09:22:57.979Z,18.62
2018-11-29T09:25:26.122Z,18.98
2018-11-29T09:27:54.465Z,19.77
2018-11-29T09:30:23.301Z,20.20
2018-11-29T09:32:52.626Z,20.10
2018-11-29T09:35:20.885Z,20.85
2018-11-29T09:37:49.113Z,19.85
2018-11-29T09:40:18.141Z,20.62
2018-11-29T09:42:46.440Z,20.35
2018-11-29T09:45:18.593Z,20.15
2018-11-29T09:47:50.752Z,19.90
2018-11-29T09:50:19.110Z,19.42
2018-11-29T09:52:47.381Z,18.52
2018-11-29T09:55:16.446Z,19.42
2018-11-29T09:57:54.365Z,20.62
2018-11-29T10:00:27.899Z,19.92
2018-11-29T10:03:12.111Z,19.12
2018-11-29T10:05:41.548Z,18.40
2018-11-29T10:08:12.090Z,18.80
2018-11-29T10:10:39.045Z,19.52
2018-11-29T10:13:07.238Z,19.90
2018-11-29T10:15:35.394Z,18.60
2018-11-29T10:18:03.828Z,19.27
2018-11-29T10:20:32.123Z,19.55
2018-11-29T10:23:00.315Z,20.95
2018-11-29T10:25:28.495Z,19.98
2018-11-29T10:27:58.928Z,20.48
2018-11-29T10:30:31.756Z,21.00
2018-11-29T10:33:00.078Z,19.17
2018-11-29T10:35:28.256Z,19.30
2018-11-29T10:37:56.462Z,19.27
2018-11-29T10:40:24.693Z,19.35
2018-11-29T10:42:52.807Z,22.25
2018-11-29T10:45:21.177Z,20.50
2018-11-29T10:47:52.524Z,20.48
2018-11-29T10:50:19.338Z,21.80
2018-11-29T10:52:47.538Z,19.80
2018-11-29T10:55:16.537Z,19.57
2018-11-29T10:57:44.744Z,20.30
2018-11-29T11:00:23.539Z,19.37
2018-11-29T11:02:58.138Z,18.82
2018-11-29T11:05:26.413Z,19.40
2018-11-29T11:07:54.556Z,21.30
2018-11-29T11:10:22.751Z,20.60
2018-11-29T11:12:50.977Z,21.42
2018-11-29T11:15:19.191Z,19.95
2018-11-29T11:17:47.364Z,18.67
2018-11-29T11:20:15.562Z,19.92
2018-11-29T11:22:43.749Z,20.70
2018-11-29T11:25:12.450Z,19.77
2018-11-29T11:27:40.686Z,18.80
2018-11-29T11:30:12.482Z,19.40
2018-11-29T11:32:40.769Z,19.40
2018-11-29T11:35:09.315Z,19.77
2018-11-29T11:37:37.468Z,19.70
2018-11-29T11:40:07.766Z,19.50
2018-11-29T11:42:35.965Z,20.08
2018-11-29T11:45:04.746Z,19.65
2018-11-29T11:47:32.936Z,23.47
2018-11-29T11:50:01.136Z,21.70
2018-11-29T11:52:29.327Z,21.68
2018-11-29T11:54:57.653Z,21.65
2018-11-29T11:57:25.889Z,23.62
2018-11-29T11:59:54.119Z,20.35
2018-11-29T12:02:27.367Z,24.82
2018-11-29T12:04:50.737Z,23.80
2018-11-29T12:07:18.992Z,21.10
2018-11-29T12:09:47.116Z,22.22
2018-11-29T12:12:15.343Z,22.55
2018-11-29T12:14:43.573Z,23.65
2018-11-29T12:17:11.779Z,22.17
2018-11-29T12:19:41.083Z,24.35
2018-11-29T12:22:08.270Z,22.32
2018-11-29T12:24:36.465Z,23.75
2018-11-29T12:27:04.641Z,23.02
2018-11-29T12:29:32.861Z,23.70
2018-11-29T12:32:01.023Z,23.55
2018-11-29T12:34:29.191Z,23.55
2018-11-29T12:36:57.318Z,23.83
2018-11-29T12:39:25.542Z,24.27
2018-11-29T12:41:53.740Z,24.98
2018-11-29T12:44:22.028Z,22.55
2018-11-29T12:46:50.165Z,22.85
2018-11-29T12:49:18.415Z,22.52
2018-11-29T12:51:46.565Z,23.38
2018-11-29T12:54:14.700Z,23.67
2018-11-29T12:56:42.893Z,25.40
2018-11-29T12:59:11.113Z,23.20
2018-11-29T13:01:39.321Z,25.30
2018-11-29T13:04:07.590Z,24.00
2018-11-29T13:06:35.854Z,22.00
2018-11-29T13:09:08.804Z,22.80
2018-11-29T13:11:37.000Z,23.02
2018-11-29T13:14:05.944Z,20.97
2018-11-29T13:16:34.166Z,24.85
2018-11-29T13:19:02.366Z,22.17
2018-11-29T13:21:30.603Z,22.35
2018-11-29T13:24:00.231Z,22.98
2018-11-29T13:26:27.013Z,21.42
2018-11-29T13:28:55.185Z,21.00
2018-11-29T13:31:23.393Z,21.40
2018-11-29T13:33:51.585Z,22.87
2018-11-29T13:36:19.803Z,20.35
2018-11-29T13:38:48.017Z,23.75
2018-11-29T13:41:16.192Z,22.37
2018-11-29T13:43:44.414Z,23.62
2018-11-29T13:46:12.657Z,27.58
2018-11-29T13:48:40.888Z,22.95
2018-11-29T13:51:09.087Z,20.92
2018-11-29T13:53:37.340Z,21.97
2018-11-29T13:56:06.524Z,20.35
2018-11-29T13:58:34.752Z,20.23
2018-11-29T14:01:02.996Z,20.08
2018-11-29T14:03:31.254Z,20.60
2018-11-29T14:05:59.450Z,17.85
2018-11-29T14:08:27.638Z,19.52
2018-11-29T14:10:55.878Z,19.70
2018-11-29T14:13:24.079Z,19.85
2018-11-29T14:15:52.281Z,18.85
2018-11-29T14:18:20.497Z,20.75
2018-11-29T14:20:48.688Z,18.48
2018-11-29T14:23:17.120Z,20.68
2018-11-29T14:25:45.273Z,18.25
2018-11-29T14:28:13.561Z,17.42
2018-11-29T14:30:41.731Z,18.87
2018-11-29T14:33:09.934Z,17.85
2018-11-29T14:35:38.137Z,18.87
2018-11-29T14:38:06.408Z,18.10
2018-11-29T14:40:35.388Z,16.82
2018-11-29T14:43:03.529Z,17.70
2018-11-29T14:45:31.995Z,18.70
2018-11-29T14:48:01.205Z,17.15
2018-11-29T14:50:32.874Z,17.87
2018-11-29T14:53:01.146Z,17.27
2018-11-29T14:55:29.297Z,16.57
2018-11-29T14:57:57.457Z,15.80
2018-11-29T15:00:25.640Z,16.67
2018-11-29T15:02:54.203Z,18.73
2018-11-29T15:05:27.908Z,15.63
2018-11-29T15:07:56.142Z,16.52
2018-11-29T15:10:24.313Z,15.58
2018-11-29T15:12:52.529Z,16.85
2018-11-29T15:15:20.711Z,14.95
2018-11-29T15:17:49.890Z,16.62
2018-11-29T15:20:22.577Z,15.03
2018-11-29T15:22:50.753Z,15.58
2018-11-29T15:25:18.906Z,15.50
2018-11-29T15:27:47.052Z,17.00
2018-11-29T15:30:17.495Z,16.75
2018-11-29T15:32:45.739Z,15.50
2018-11-29T15:35:13.884Z,15.45
2018-11-29T15:37:42.060Z,19.37
2018-11-29T15:40:12.575Z,16.12
2018-11-29T15:42:40.781Z,16.10
2018-11-29T15:45:11.691Z,16.10
2018-11-29T15:47:39.914Z,16.12
2018-11-29T15:50:10.226Z,16.82
2018-11-29T15:52:38.415Z,16.80
2018-11-29T15:55:11.598Z,18.48
2018-11-29T15:57:39.788Z,16.07
2018-11-29T16:00:11.633Z,17.05
2018-11-29T16:02:39.983Z,17.92
2018-11-29T16:05:08.700Z,18.05
2018-11-29T16:07:36.942Z,17.57
2018-11-29T16:10:09.111Z,17.40
2018-11-29T16:12:37.288Z,18.67
2018-11-29T16:15:07.739Z,18.23
2018-11-29T16:17:35.946Z,17.87
2018-11-29T16:20:05.413Z,15.75
2018-11-29T16:22:33.572Z,17.73
2018-11-29T16:25:01.745Z,17.75
2018-11-29T16:27:30.081Z,17.57
2018-11-29T16:29:58.428Z,15.23
2018-11-29T16:32:26.676Z,18.23
2018-11-29T16:34:54.920Z,16.75
2018-11-29T16:37:23.069Z,18.12
2018-11-29T16:39:51.230Z,25.68
2018-11-29T16:42:19.435Z,17.48
2018-11-29T16:44:47.616Z,20.15
2018-11-29T16:47:15.803Z,17.80
2018-11-29T16:49:43.995Z,17.00
2018-11-29T16:52:12.400Z,15.10
2018-11-29T16:54:40.618Z,15.25
2018-11-29T16:57:08.856Z,17.00
2018-11-29T16:59:37.086Z,17.00
2018-11-29T17:02:05.285Z,17.50
2018-11-29T17:04:34.521Z,16.90
2018-11-29T17:07:02.721Z,17.12
2018-11-29T17:09:30.907Z,16.97
2018-11-29T17:12:00.268Z,18.42
2018-11-29T17:14:28.079Z,16.02
2018-11-29T17:16:57.412Z,17.15
2018-11-29T17:19:25.626Z,16.27
2018-11-29T17:21:53.837Z,17.87
2018-11-29T17:24:22.042Z,16.82
2018-11-29T17:26:50.254Z,16.82
2018-11-29T17:29:18.441Z,16.52
2018-11-29T17:31:53.212Z,18.25
2018-11-29T17:34:21.413Z,17.77
2018-11-29T17:36:49.614Z,17.87
2018-11-29T17:39:17.900Z,18.05
2018-11-29T17:41:46.111Z,18.57
2018-11-29T17:44:14.333Z,16.65
2018-11-29T17:46:42.574Z,17.35
2018-11-29T17:49:10.759Z,15.85
2018-11-29T17:51:42.093Z,15.88
2018-11-29T17:54:10.338Z,15.70
2018-11-29T17:56:38.516Z,15.30
2018-11-29T17:59:12.228Z,15.18
2018-11-29T18:01:40.453Z,16.02
2018-11-29T18:04:08.672Z,15.88
2018-11-29T18:06:36.849Z,14.03
2018-11-29T18:09:09.476Z,15.40
2018-11-29T18:11:38.111Z,13.60
2018-11-29T18:14:06.613Z,15.80
2018-11-29T18:16:34.812Z,15.40
2018-11-29T18:19:02.995Z,15.48
2018-11-29T18:21:31.222Z,16.15
2018-11-29T18:23:59.665Z,14.87
2018-11-29T18:26:27.871Z,13.80
2018-11-29T18:28:56.117Z,14.38
2018-11-29T18:31:24.359Z,13.88
2018-11-29T18:33:52.797Z,15.50
2018-11-29T18:36:21.026Z,15.30
2018-11-29T18:38:49.229Z,13.00
2018-11-29T18:41:17.421Z,14.93
2018-11-29T18:43:45.649Z,14.85
2018-11-29T18:46:17.165Z,14.18
2018-11-29T18:48:42.025Z,13.28
2018-11-29T18:51:10.288Z,15.00
2018-11-29T18:53:38.567Z,13.72
2018-11-29T18:56:06.819Z,13.32
2018-11-29T18:58:35.087Z,14.95
2018-11-29T19:01:03.289Z,13.43
2018-11-29T19:03:31.499Z,14.03
2018-11-29T19:05:59.835Z,12.95
2018-11-29T19:08:28.048Z,13.20
2018-11-29T19:10:56.280Z,14.75
2018-11-29T19:13:24.541Z,15.03
2018-11-29T19:15:54.854Z,12.80
2018-11-29T19:18:23.240Z,13.43
2018-11-29T19:20:51.416Z,16.50
2018-11-29T19:23:19.693Z,13.72
2018-11-29T19:25:47.941Z,14.70
2018-11-29T19:28:16.213Z,14.98
2018-11-29T19:30:44.447Z,14.53
2018-11-29T19:33:17.682Z,13.03
2018-11-29T19:35:46.816Z,14.90
2018-11-29T19:38:15.034Z,13.88
2018-11-29T19:40:43.349Z,13.48
2018-11-29T19:43:11.455Z,14.58
2018-11-29T19:45:39.820Z,11.60
2018-11-29T19:48:08.969Z,12.28
2018-11-29T19:50:38.562Z,11.75
2018-11-29T19:53:12.138Z,13.03
2018-11-29T19:55:40.476Z,11.85
2018-11-29T19:58:08.637Z,12.73
2018-11-29T20:00:36.840Z,12.98
2018-11-29T20:03:05.665Z,11.65
2018-11-29T20:05:33.945Z,12.50
2018-11-29T20:08:02.166Z,11.30
2018-11-29T20:10:30.299Z,10.30
2018-11-29T20:13:03.966Z,12.35
2018-11-29T20:15:32.605Z,12.10
2018-11-29T20:18:01.913Z,11.80
2018-11-29T20:20:30.161Z,12.20
2018-11-29T20:22:58.342Z,12.40
2018-11-29T20:25:26.959Z,10.55
2018-11-29T20:27:55.124Z,11.65
2018-11-29T20:30:24.107Z,15.65
2018-11-29T20:32:54.774Z,12.10
2018-11-29T20:35:23.048Z,12.75
2018-11-29T20:37:52.223Z,12.53
2018-11-29T20:40:26.504Z,11.80
2018-11-29T20:42:55.883Z,11.20
2018-11-29T20:45:55.691Z,12.50
2018-11-29T20:48:26.581Z,12.70
2018-11-29T20:50:55.880Z,11.83
2018-11-29T20:53:31.014Z,11.88
2018-11-29T20:56:04.005Z,11.53
2018-11-29T20:58:32.189Z,13.15
2018-11-29T21:01:00.352Z,12.20
2018-11-29T21:03:28.628Z,12.45
2018-11-29T21:05:56.894Z,11.43
2018-11-29T21:08:25.165Z,11.63
2018-11-29T21:10:53.593Z,11.25
2018-11-29T21:13:21.801Z,12.68
2018-11-29T21:15:50.085Z,11.28
2018-11-29T21:18:18.321Z,12.43
2018-11-29T21:20:46.518Z,11.10
2018-11-29T21:23:16.577Z,11.08
2018-11-29T21:25:45.860Z,11.65
2018-11-29T21:28:14.189Z,10.32
2018-11-29T21:30:42.432Z,11.10
2018-11-29T21:33:10.962Z,10.50
2018-11-29T21:35:39.266Z,10.65
2018-11-29T21:38:18.558Z,11.05
2018-11-29T21:40:49.744Z,10.45
2018-11-29T21:43:17.970Z,10.85
2018-11-29T21:45:46.219Z,11.78
2018-11-29T21:48:14.588Z,10.40
2018-11-29T21:50:42.820Z,10.98
2018-11-29T21:53:15.021Z,10.75
2018-11-29T21:55:43.260Z,11.45
2018-11-29T21:58:11.525Z,10.58
2018-11-29T22:00:39.757Z,10.88
2018-11-29T22:03:07.953Z,12.28
2018-11-29T22:05:36.177Z,11.08
2018-11-29T22:08:04.454Z,10.30
2018-11-29T22:10:32.784Z,10.23
2018-11-29T22:13:00.981Z,10.40
2018-11-29T22:15:29.240Z,11.45
2018-11-29T22:18:31.072Z,11.33
2018-11-29T22:21:01.510Z,10.25
2018-11-29T22:23:30.261Z,10.45
2018-11-29T22:25:59.489Z,10.82
2018-11-29T22:28:27.786Z,11.83
2018-11-29T22:30:56.228Z,11.68
2018-11-29T22:33:27.157Z,10.85
2018-11-29T22:35:55.486Z,10.15
2018-11-29T22:38:23.847Z,12.10
2018-11-29T22:40:52.216Z,12.33
2018-11-29T22:43:20.414Z,11.18
2018-11-29T22:45:48.674Z,11.40
2018-11-29T22:48:16.860Z,10.98
2018-11-29T22:50:45.146Z,11.15
2018-11-29T22:53:16.487Z,11.55
2018-11-29T22:55:45.245Z,11.30
2018-11-29T22:58:27.214Z,10.63
2018-11-29T23:00:56.564Z,11.20
2018-11-29T23:03:25.549Z,9.83
2018-11-29T23:05:53.725Z,11.28
2018-11-29T23:08:22.037Z,10.28
2018-11-29T23:10:50.749Z,10.75
2018-11-29T23:13:18.953Z,10.45
2018-11-29T23:15:47.220Z,9.65
2018-11-29T23:18:15.396Z,10.75
2018-11-29T23:20:43.618Z,9.35
2018-11-29T23:23:11.896Z,9.80
2018-11-29T23:25:40.167Z,9.65
2018-11-29T23:28:09.342Z,9.50
2018-11-29T23:30:37.594Z,9.93
2018-11-29T23:33:05.833Z,9.18
2018-11-29T23:35:34.010Z,10.10
2018-11-29T23:38:02.220Z,10.03
2018-11-29T23:40:30.453Z,9.95
2018-11-29T23:42:58.673Z,9.20
2018-11-29T23:45:26.857Z,10.55
2018-11-29T23:47:55.032Z,10.50
2018-11-29T23:50:23.249Z,8.63
2018-11-29T23:52:51.450Z,8.30
2018-11-29T23:55:21.084Z,8.63
2018-11-29T23:57:50.267Z,9.25
